Time;durP1;ratioP1;P1;durP2;ratioP2;P2;SDS_P1;SDS_P2;PMS_P1;PMS_P2;Temp;Humidity;BMP_temperature;BMP_pressure;BME280_temperature;BME280_humidity;BME280_pressure;Samples;Min_cycle;Max_cycle;Signal;HPM_P1;HPM_P2
2022/09/04 00:00:37;;;;;;;0.00;0.00;;;17.40;99.90;226.50;231333.00;;;;4976126;28;20200;-71
2022/09/04 00:03:27;;;;;;;0.00;0.00;;;17.40;99.90;226.50;231333.00;;;;4975620;28;20228;-71
2022/09/04 00:06:04;;;;;;;0.00;0.00;;;17.40;99.90;226.50;231333.00;;;;4975962;28;20193;-72
2022/09/04 00:09:01;;;;;;;0.00;0.00;;;17.30;99.90;226.50;231333.00;;;;4974991;28;20205;-72
2022/09/04 00:11:57;;;;;;;0.00;0.00;;;17.30;99.90;226.50;231333.00;;;;4974279;28;20189;-72
2022/09/04 00:14:45;;;;;;;0.00;0.00;;;17.30;99.90;226.50;231333.00;;;;4975587;28;20201;-72
2022/09/04 00:17:25;;;;;;;0.00;0.00;;;17.30;99.90;226.50;231333.00;;;;4983040;28;20656;-72
2022/09/04 00:20:01;;;;;;;0.00;0.00;;;17.40;99.90;226.50;231333.00;;;;4958594;28;20216;-72
2022/09/04 00:22:45;;;;;;;0.00;0.00;;;17.40;99.90;226.50;231333.00;;;;4975284;28;20225;-72
2022/09/04 00:25:25;;;;;;;0.03;0.03;;;17.40;99.90;226.50;231333.00;;;;4975472;28;20236;-72
2022/09/04 00:28:08;;;;;;;0.00;0.00;;;17.40;99.90;226.50;231333.00;;;;4974775;28;20193;-72
2022/09/04 00:30:49;;;;;;;0.00;0.00;;;17.30;99.90;226.50;231333.00;;;;4974651;28;20196;-72
2022/09/04 00:33:32;;;;;;;0.00;0.00;;;17.30;99.90;226.50;231333.00;;;;4975130;28;20213;-72
2022/09/04 00:36:06;;;;;;;0.00;0.00;;;17.30;99.90;226.50;231333.00;;;;4975354;28;20193;-72
2022/09/04 00:38:47;;;;;;;0.00;0.00;;;17.40;99.90;226.50;231333.00;;;;4974327;28;20206;-72
2022/09/04 00:41:29;;;;;;;0.00;0.00;;;17.20;99.90;226.50;231333.00;;;;4975380;28;20197;-72
2022/09/04 00:44:38;;;;;;;0.00;0.00;;;17.20;99.90;226.50;231333.00;;;;4975304;28;20225;-72
2022/09/04 00:47:57;;;;;;;0.00;0.00;;;17.20;99.90;226.50;231333.00;;;;4975048;28;20208;-72
2022/09/04 00:51:02;;;;;;;0.00;0.00;;;17.20;99.90;226.50;231333.00;;;;4974690;28;20556;-72
2022/09/04 00:54:14;;;;;;;0.00;0.00;;;17.10;99.90;226.50;231333.00;;;;4975018;28;20217;-72
2022/09/04 00:57:48;;;;;;;0.00;0.00;;;17.10;99.90;226.50;231333.00;;;;4974152;28;20292;-72
2022/09/04 01:00:22;;;;;;;0.00;0.00;;;17.10;99.90;226.50;231333.00;;;;4974828;28;20277;-72
2022/09/04 01:03:33;;;;;;;0.00;0.00;;;17.10;99.90;226.50;231333.00;;;;4974816;28;20221;-72
2022/09/04 01:06:39;;;;;;;0.00;0.00;;;17.10;99.90;226.50;231333.00;;;;4975333;28;20221;-72
2022/09/04 01:09:46;;;;;;;0.00;0.00;;;17.10;99.90;226.50;231333.00;;;;4955568;28;20194;-71
2022/09/04 01:12:36;;;;;;;0.00;0.00;;;17.00;99.90;226.50;231333.00;;;;4955859;28;20273;-71
2022/09/04 01:15:18;;;;;;;0.00;0.00;;;17.00;99.90;226.50;231333.00;;;;4959691;28;20213;-71
2022/09/04 01:18:06;;;;;;;0.10;0.10;;;17.00;99.90;226.50;231333.00;;;;4965388;28;20205;-72
2022/09/04 01:21:05;;;;;;;0.00;0.00;;;17.00;99.90;226.50;231333.00;;;;4986961;28;20208;-72
2022/09/04 01:24:00;;;;;;;0.00;0.00;;;16.90;99.90;226.50;231333.00;;;;4962546;28;20228;-72
2022/09/04 01:26:46;;;;;;;0.00;0.00;;;16.90;99.90;226.50;231333.00;;;;4974285;28;20201;-71
2022/09/04 01:29:31;;;;;;;0.00;0.00;;;16.90;99.90;226.50;231333.00;;;;4969207;28;20207;-71
2022/09/04 01:32:13;;;;;;;0.00;0.00;;;16.90;99.90;226.50;231333.00;;;;4974424;28;20221;-71
2022/09/04 01:34:58;;;;;;;0.00;0.00;;;16.90;99.90;226.50;231333.00;;;;4974392;28;20205;-71
2022/09/04 01:37:47;;;;;;;0.00;0.00;;;16.90;99.90;226.50;231333.00;;;;4973451;28;20551;-71
2022/09/04 01:40:35;;;;;;;0.00;0.00;;;16.90;99.90;226.50;231333.00;;;;4954911;28;20205;-71
2022/09/04 01:43:12;;;;;;;0.00;0.00;;;16.90;99.90;226.50;231333.00;;;;4954906;28;20213;-72
2022/09/04 01:46:11;;;;;;;0.00;0.00;;;16.80;99.90;226.50;231333.00;;;;4956771;28;20565;-72
2022/09/04 01:48:50;;;;;;;0.10;0.10;;;16.80;99.90;226.50;231333.00;;;;4973654;28;20204;-72
2022/09/04 01:51:32;;;;;;;0.10;0.10;;;16.70;99.90;226.50;231333.00;;;;4973437;28;20201;-72
2022/09/04 01:54:27;;;;;;;0.03;0.03;;;16.60;99.90;226.50;231333.00;;;;4986315;28;20211;-72
2022/09/04 01:57:10;;;;;;;0.00;0.00;;;16.60;99.90;226.50;231333.00;;;;4973359;28;20197;-72
2022/09/04 02:00:01;;;;;;;0.00;0.00;;;16.60;99.90;226.50;231333.00;;;;4972541;28;20287;-72
2022/09/04 02:02:52;;;;;;;0.00;0.00;;;16.50;99.90;226.50;231333.00;;;;4973485;28;20263;-72
2022/09/04 02:05:31;;;;;;;0.00;0.00;;;16.50;99.90;226.50;231333.00;;;;4973733;28;20308;-72
2022/09/04 02:08:25;;;;;;;0.00;0.00;;;16.40;99.90;226.50;231333.00;;;;4973386;28;20211;-72
2022/09/04 02:11:03;;;;;;;0.00;0.00;;;16.40;99.90;226.50;231333.00;;;;4973808;28;20283;-72
2022/09/04 02:13:52;;;;;;;0.10;0.10;;;16.30;99.90;226.50;231333.00;;;;4973417;28;20434;-72
2022/09/04 02:16:37;;;;;;;0.00;0.00;;;16.20;99.90;226.50;231333.00;;;;4954516;28;20217;-72
2022/09/04 02:19:24;;;;;;;0.00;0.00;;;16.30;99.90;226.50;231333.00;;;;4972866;28;20587;-72
2022/09/04 02:22:14;;;;;;;0.00;0.00;;;16.40;99.90;226.50;231333.00;;;;4973488;28;20223;-72
2022/09/04 02:24:58;;;;;;;0.00;0.00;;;16.40;99.90;226.50;231333.00;;;;4973821;28;20550;-72
2022/09/04 02:27:38;;;;;;;0.00;0.00;;;16.40;99.90;226.50;231333.00;;;;4972331;28;20201;-72
2022/09/04 02:30:12;;;;;;;0.00;0.00;;;16.50;99.90;226.50;231333.00;;;;4973490;28;20203;-72
2022/09/04 02:32:55;;;;;;;0.00;0.00;;;16.50;99.90;226.50;231333.00;;;;4989245;28;20570;-72
2022/09/04 02:35:36;;;;;;;0.00;0.00;;;16.50;99.90;226.50;231333.00;;;;4973120;28;20556;-72
2022/09/04 02:38:21;;;;;;;0.00;0.00;;;16.50;99.90;226.50;231333.00;;;;4972244;28;20197;-72
2022/09/04 02:40:58;;;;;;;0.00;0.00;;;16.30;99.90;226.50;231333.00;;;;4973224;28;20204;-72
2022/09/04 02:43:48;;;;;;;0.10;0.10;;;16.40;99.90;226.50;231333.00;;;;4972976;28;20224;-72
2022/09/04 02:46:32;;;;;;;0.10;0.10;;;16.40;99.90;226.50;231333.00;;;;4972566;28;20220;-72
2022/09/04 02:49:15;;;;;;;0.10;0.10;;;16.20;99.90;226.50;231333.00;;;;4972714;28;20593;-71
2022/09/04 02:52:03;;;;;;;0.00;0.00;;;16.20;99.90;226.50;231333.00;;;;4973057;28;20656;-71
2022/09/04 02:55:00;;;;;;;0.10;0.10;;;16.20;99.90;226.50;231333.00;;;;4972786;28;20201;-71
2022/09/04 02:57:46;;;;;;;0.00;0.00;;;16.20;99.90;226.50;231333.00;;;;4953364;28;20201;-71
2022/09/04 03:00:20;;;;;;;0.00;0.00;;;16.00;99.90;226.50;231333.00;;;;4953482;28;20201;-72
2022/09/04 03:03:05;;;;;;;0.00;0.00;;;16.00;99.90;226.50;231333.00;;;;4953767;28;20217;-72
2022/09/04 03:05:49;;;;;;;0.00;0.00;;;16.00;99.90;226.50;231333.00;;;;4972270;28;20691;-72
2022/09/04 03:08:30;;;;;;;0.00;0.00;;;16.10;99.90;226.50;231333.00;;;;4972620;28;20197;-71
2022/09/04 03:11:15;;;;;;;0.00;0.00;;;16.00;99.90;226.50;231333.00;;;;4971581;28;20208;-71
2022/09/04 03:13:58;;;;;;;0.10;0.10;;;16.00;99.90;226.50;231333.00;;;;4972892;28;20239;-71
2022/09/04 03:16:37;;;;;;;0.10;0.10;;;16.00;99.90;226.50;231333.00;;;;4972298;28;20935;-71
2022/09/04 03:19:18;;;;;;;0.10;0.10;;;16.10;99.90;226.50;231333.00;;;;4972546;28;20193;-71
2022/09/04 03:21:59;;;;;;;0.00;0.00;;;15.90;99.90;226.50;231333.00;;;;4972622;28;20216;-71
2022/09/04 03:24:42;;;;;;;0.10;0.10;;;15.90;99.90;226.50;231333.00;;;;4973113;28;20208;-71
2022/09/04 03:27:17;;;;;;;0.08;0.08;;;15.80;99.90;226.50;231333.00;;;;4980103;28;20224;-71
2022/09/04 03:29:57;;;;;;;0.10;0.10;;;15.80;99.90;226.50;231333.00;;;;4972498;28;20280;-72
2022/09/04 03:32:34;;;;;;;0.00;0.00;;;15.70;99.90;226.50;231333.00;;;;4973026;28;20227;-71
2022/09/04 03:35:12;;;;;;;0.00;0.00;;;15.60;99.90;226.50;231333.00;;;;4976389;28;20203;-71
2022/09/04 03:38:00;;;;;;;0.10;0.10;;;15.60;99.90;226.50;231333.00;;;;4975993;28;20199;-71
2022/09/04 03:40:38;;;;;;;0.10;0.10;;;15.50;99.90;226.50;231333.00;;;;4976394;28;20193;-72
2022/09/04 03:43:43;;;;;;;0.10;0.10;;;15.50;99.90;226.50;231333.00;;;;4976180;28;20208;-71
2022/09/04 03:46:33;;;;;;;0.00;0.00;;;15.50;99.90;226.50;231333.00;;;;4975772;28;20223;-71
2022/09/04 03:49:25;;;;;;;0.00;0.00;;;15.50;99.90;226.50;231333.00;;;;4976016;28;20531;-72
2022/09/04 03:52:07;;;;;;;0.00;0.00;;;15.40;99.90;226.50;231333.00;;;;4976003;28;20217;-71
2022/09/04 03:55:04;;;;;;;0.00;0.00;;;15.50;99.90;226.50;231333.00;;;;4975988;28;20251;-71
2022/09/04 03:57:51;;;;;;;0.10;0.10;;;15.40;99.90;226.50;231333.00;;;;4975864;28;20300;-72
2022/09/04 04:00:23;;;;;;;0.00;0.00;;;15.40;99.90;226.50;231333.00;;;;4975757;28;20273;-71
2022/09/04 04:03:21;;;;;;;0.10;0.10;;;15.30;99.90;226.50;231333.00;;;;4976117;28;20208;-71
2022/09/04 04:06:05;;;;;;;0.00;0.00;;;15.40;99.90;226.50;231333.00;;;;4975603;28;20241;-71
2022/09/04 04:09:18;;;;;;;0.00;0.00;;;15.40;99.90;226.50;231333.00;;;;4975791;28;20197;-71
2022/09/04 04:12:12;;;;;;;0.00;0.00;;;15.30;99.90;226.50;231333.00;;;;4975632;28;20738;-71
2022/09/04 04:15:03;;;;;;;0.00;0.00;;;15.10;99.90;226.50;231333.00;;;;4975658;28;20201;-71
2022/09/04 04:18:13;;;;;;;0.00;0.00;;;15.10;99.90;226.50;231333.00;;;;4975523;28;20895;-71
2022/09/04 04:20:57;;;;;;;0.00;0.00;;;15.00;99.90;226.50;231333.00;;;;4975871;28;20212;-71
2022/09/04 04:24:02;;;;;;;0.00;0.00;;;15.00;99.90;226.50;231333.00;;;;4973711;28;20754;-71
2022/09/04 04:26:51;;;;;;;0.00;0.00;;;15.00;99.90;226.50;231333.00;;;;4975446;28;20258;-71
2022/09/04 04:29:59;;;;;;;0.10;0.10;;;15.00;99.90;226.50;231333.00;;;;4975071;28;20643;-70
2022/09/04 04:32:50;;;;;;;0.10;0.10;;;15.00;99.90;226.50;231333.00;;;;4975349;28;20217;-71
2022/09/04 04:35:35;;;;;;;0.00;0.00;;;15.00;99.90;226.50;231333.00;;;;4961307;28;20201;-71
2022/09/04 04:38:28;;;;;;;0.10;0.10;;;14.90;99.90;226.50;231333.00;;;;4974782;28;20560;-71
2022/09/04 04:42:02;;;;;;;0.10;0.10;;;14.90;99.90;226.50;231333.00;;;;4975448;28;20212;-71
2022/09/04 04:48:08;;;;;;;0.10;0.10;;;14.90;99.90;226.50;231333.00;;;;4955433;29;20235;-71
2022/09/04 04:50:52;;;;;;;0.00;0.00;;;14.90;99.90;226.50;231333.00;;;;4964593;28;20203;-71
2022/09/04 04:53:35;;;;;;;0.10;0.10;;;15.00;99.90;226.50;231333.00;;;;4975023;28;20703;-71
2022/09/04 04:56:18;;;;;;;0.00;0.00;;;14.90;99.90;226.50;231333.00;;;;4975598;28;20213;-71
2022/09/04 04:59:07;;;;;;;0.00;0.00;;;15.00;99.90;226.50;231333.00;;;;4975889;28;20197;-71
2022/09/04 05:01:55;;;;;;;0.08;0.08;;;14.90;99.90;226.50;231333.00;;;;4975812;28;20212;-71
2022/09/04 05:04:44;;;;;;;0.10;0.10;;;14.80;99.90;226.50;231333.00;;;;4975817;28;20199;-71
2022/09/04 05:07:34;;;;;;;0.10;0.10;;;14.80;99.90;226.50;231333.00;;;;4977137;28;20225;-71
2022/09/04 05:10:17;;;;;;;0.10;0.10;;;14.80;99.90;226.50;231333.00;;;;4975851;28;20197;-71
2022/09/04 05:13:14;;;;;;;0.00;0.00;;;14.80;99.90;226.50;231333.00;;;;4975392;28;20235;-71
2022/09/04 05:15:55;;;;;;;0.00;0.00;;;14.70;99.90;226.50;231333.00;;;;4976139;28;20297;-71
2022/09/04 05:18:55;;;;;;;0.00;0.00;;;14.70;99.90;226.50;231333.00;;;;4975491;28;20193;-71
2022/09/04 05:21:36;;;;;;;0.00;0.00;;;14.70;99.90;226.50;231333.00;;;;4975725;28;20200;-71
2022/09/04 05:24:15;;;;;;;0.00;0.00;;;14.70;99.90;226.50;231333.00;;;;5021597;23;20370;-77
2022/09/04 05:26:56;;;;;;;0.10;0.10;;;14.70;99.90;226.50;231333.00;;;;5013862;28;20227;-77
2022/09/04 05:29:39;;;;;;;0.10;0.10;;;14.70;99.90;226.50;231333.00;;;;4996439;28;20290;-76
2022/09/04 05:32:24;;;;;;;0.00;0.00;;;14.80;99.90;226.50;231333.00;;;;4994317;28;20219;-74
2022/09/04 05:35:09;;;;;;;0.10;0.10;;;14.80;99.90;226.50;231333.00;;;;4997731;28;20192;-75
2022/09/04 05:37:50;;;;;;;0.00;0.00;;;14.90;99.90;226.50;231333.00;;;;5012656;28;20282;-74
2022/09/04 05:40:32;;;;;;;0.10;0.10;;;14.90;99.90;226.50;231333.00;;;;5012046;28;20199;-75
2022/09/04 05:43:24;;;;;;;0.00;0.00;;;14.90;99.90;226.50;231333.00;;;;5012819;28;20216;-75
2022/09/04 05:46:11;;;;;;;0.00;0.00;;;14.90;99.90;226.50;231333.00;;;;5013784;28;20199;-74
2022/09/04 05:48:57;;;;;;;0.10;0.10;;;15.00;99.90;226.50;231333.00;;;;5012971;28;20207;-74
2022/09/04 05:52:06;;;;;;;0.00;0.00;;;15.00;99.90;226.50;231333.00;;;;5003013;28;20227;-76
2022/09/04 05:55:13;;;;;;;0.00;0.00;;;15.00;99.90;226.50;231333.00;;;;5000287;28;20212;-76
2022/09/04 05:58:05;;;;;;;0.00;0.00;;;15.10;99.90;226.50;231333.00;;;;5018501;28;20736;-74
2022/09/04 06:00:54;;;;;;;0.00;0.00;;;15.10;99.90;226.50;231333.00;;;;5013033;28;20196;-74
2022/09/04 06:03:56;;;;;;;0.00;0.00;;;15.20;99.90;226.50;231333.00;;;;5012877;28;20230;-74
2022/09/04 06:06:43;;;;;;;0.00;0.00;;;15.30;99.90;226.50;231333.00;;;;5003390;28;20730;-76
2022/09/04 06:09:50;;;;;;;0.00;0.00;;;15.30;99.90;226.50;231333.00;;;;5012635;28;20705;-76
2022/09/04 06:12:47;;;;;;;0.00;0.00;;;15.40;99.90;226.50;231333.00;;;;5011753;28;20737;-76
2022/09/04 06:15:48;;;;;;;0.00;0.00;;;15.40;99.90;226.50;231333.00;;;;5001910;28;20196;-76
2022/09/04 06:19:02;;;;;;;0.00;0.00;;;15.50;99.90;226.50;231333.00;;;;5012340;28;20274;-76
2022/09/04 06:22:07;;;;;;;0.00;0.00;;;15.50;99.90;226.50;231333.00;;;;5011265;28;20211;-76
2022/09/04 06:25:14;;;;;;;0.00;0.00;;;15.60;99.90;226.50;231333.00;;;;5012502;28;20203;-76
2022/09/04 06:28:27;;;;;;;0.00;0.00;;;15.70;99.90;226.50;231333.00;;;;5013267;28;20229;-76
2022/09/04 06:31:27;;;;;;;0.03;0.03;;;15.70;99.90;226.50;231333.00;;;;5013468;28;20192;-76
2022/09/04 06:34:08;;;;;;;0.00;0.00;;;15.80;99.90;226.50;231333.00;;;;5012902;28;20215;-76
2022/09/04 06:36:58;;;;;;;0.00;0.00;;;15.90;99.90;226.50;231333.00;;;;5015044;28;20192;-76
2022/09/04 06:40:08;;;;;;;0.00;0.00;;;16.00;99.90;226.50;231333.00;;;;5009226;28;20212;-76
2022/09/04 06:42:59;;;;;;;0.00;0.00;;;16.20;99.90;226.50;231333.00;;;;4992488;28;20266;-76
2022/09/04 06:45:47;;;;;;;0.00;0.00;;;16.30;99.90;226.50;231333.00;;;;4999267;28;20562;-75
2022/09/04 06:48:35;;;;;;;0.00;0.00;;;16.40;99.90;226.50;231333.00;;;;5017515;28;20231;-75
2022/09/04 06:51:35;;;;;;;0.00;0.00;;;16.40;99.90;226.50;231333.00;;;;5012218;28;20190;-75
2022/09/04 06:54:23;;;;;;;0.00;0.00;;;16.50;99.90;226.50;231333.00;;;;5012083;28;20220;-75
2022/09/04 06:57:23;;;;;;;0.10;0.10;;;16.60;99.90;226.50;231333.00;;;;5012075;28;20231;-75
2022/09/04 07:00:08;;;;;;;0.10;0.10;;;16.70;99.90;226.50;231333.00;;;;5012582;28;20203;-75
2022/09/04 07:03:17;;;;;;;0.00;0.00;;;16.90;99.90;226.50;231333.00;;;;5017165;28;20222;-75
2022/09/04 07:05:59;;;;;;;0.00;0.00;;;17.00;99.90;226.50;231333.00;;;;5014615;28;20196;-75
2022/09/04 07:08:47;;;;;;;0.00;0.00;;;17.10;99.90;226.50;231333.00;;;;5011871;28;20230;-76
2022/09/04 07:11:33;;;;;;;0.00;0.00;;;17.20;99.90;226.50;231333.00;;;;4991961;28;20204;-75
2022/09/04 07:14:43;;;;;;;0.00;0.00;;;17.30;99.90;226.50;231333.00;;;;4996145;28;20235;-76
2022/09/04 07:17:27;;;;;;;0.00;0.00;;;17.40;99.90;226.50;231333.00;;;;5011772;28;20654;-76
2022/09/04 07:20:15;;;;;;;0.00;0.00;;;17.50;99.90;226.50;231333.00;;;;4990853;28;20200;-76
2022/09/04 07:23:22;;;;;;;0.00;0.00;;;17.50;99.90;226.50;231333.00;;;;5005586;28;20310;-76
2022/09/04 07:26:10;;;;;;;0.00;0.00;;;17.60;99.90;226.50;231333.00;;;;5012160;28;20205;-75
2022/09/04 07:29:13;;;;;;;0.00;0.00;;;17.70;99.90;226.50;231333.00;;;;5011901;28;20215;-75
2022/09/04 07:31:55;;;;;;;0.00;0.00;;;17.80;99.90;226.50;231333.00;;;;5009465;28;20683;-76
2022/09/04 07:34:37;;;;;;;0.00;0.00;;;17.90;99.90;226.50;231333.00;;;;5012207;28;20708;-75
2022/09/04 07:37:26;;;;;;;0.00;0.00;;;18.00;99.90;226.50;231333.00;;;;5011537;28;20854;-75
2022/09/04 07:40:08;;;;;;;0.00;0.00;;;18.00;99.90;226.50;231333.00;;;;5011586;28;20732;-75
2022/09/04 07:42:50;;;;;;;0.00;0.00;;;18.10;99.90;226.50;231333.00;;;;5011875;28;20228;-75
2022/09/04 07:45:38;;;;;;;0.00;0.00;;;18.10;99.90;226.50;231333.00;;;;5010385;28;20220;-75
2022/09/04 07:48:22;;;;;;;0.00;0.00;;;18.20;99.90;226.50;231333.00;;;;5011012;28;20212;-75
2022/09/04 07:51:08;;;;;;;0.00;0.00;;;18.30;99.90;226.50;231333.00;;;;5011663;28;20574;-75
2022/09/04 07:54:14;;;;;;;0.00;0.00;;;18.30;99.90;226.50;231333.00;;;;5011901;28;20223;-75
2022/09/04 07:57:20;;;;;;;0.00;0.00;;;18.50;99.90;226.50;231333.00;;;;5010898;28;20595;-75
2022/09/04 08:00:09;;;;;;;0.00;0.00;;;18.60;99.90;226.50;231333.00;;;;5011129;28;20195;-75
2022/09/04 08:03:16;;;;;;;0.00;0.00;;;18.80;99.90;226.50;231333.00;;;;5011537;28;20212;-75
2022/09/04 08:05:54;;;;;;;0.00;0.00;;;18.90;99.90;226.50;231333.00;;;;5011202;28;20204;-75
2022/09/04 08:08:55;;;;;;;0.00;0.00;;;19.00;99.90;226.50;231333.00;;;;5010806;28;20231;-75
2022/09/04 08:11:52;;;;;;;0.00;0.00;;;19.10;99.90;226.50;231333.00;;;;4991298;28;20188;-76
2022/09/04 08:14:38;;;;;;;0.00;0.00;;;19.20;99.90;226.50;231333.00;;;;5018970;28;20266;-75
2022/09/04 08:18:10;;;;;;;0.00;0.00;;;19.30;99.90;226.50;231333.00;;;;5010730;28;20728;-75
2022/09/04 08:20:51;;;;;;;0.00;0.00;;;19.40;99.90;226.50;231333.00;;;;5005106;28;20226;-75
2022/09/04 08:24:00;;;;;;;0.00;0.00;;;19.50;99.90;226.50;231333.00;;;;5014241;28;20231;-75
2022/09/04 08:26:44;;;;;;;0.00;0.00;;;19.50;99.90;226.50;231333.00;;;;5003057;28;20574;-75
2022/09/04 08:29:45;;;;;;;0.00;0.00;;;19.60;99.90;226.50;231333.00;;;;5009122;28;20224;-75
2022/09/04 08:32:41;;;;;;;0.00;0.00;;;19.70;99.90;226.50;231333.00;;;;4994451;28;20196;-75
2022/09/04 08:35:24;;;;;;;0.00;0.00;;;19.70;99.90;226.50;231333.00;;;;4997554;28;20200;-76
2022/09/04 08:38:23;;;;;;;0.00;0.00;;;19.70;99.90;226.50;231333.00;;;;5000448;28;20204;-76
2022/09/04 08:41:44;;;;;;;0.00;0.00;;;19.80;99.90;226.50;231333.00;;;;5011980;28;20196;-75
2022/09/04 08:45:07;;;;;;;0.00;0.00;;;19.90;99.90;226.50;231333.00;;;;4994518;28;20208;-75
2022/09/04 08:48:17;;;;;;;0.00;0.00;;;20.00;99.90;226.50;231333.00;;;;4994095;28;20576;-75
2022/09/04 08:51:20;;;;;;;0.00;0.00;;;20.10;99.90;226.50;231333.00;;;;4994740;28;20544;-75
2022/09/04 08:54:49;;;;;;;0.00;0.00;;;20.20;99.90;226.50;231333.00;;;;4994701;28;20223;-75
2022/09/04 08:58:01;;;;;;;0.00;0.00;;;20.30;99.90;226.50;231333.00;;;;5013236;28;20246;-75
2022/09/04 09:00:56;;;;;;;0.00;0.00;;;20.40;99.90;226.50;231333.00;;;;4992550;28;20298;-75
2022/09/04 09:04:10;;;;;;;0.00;0.00;;;20.50;99.90;226.50;231333.00;;;;5015040;28;20224;-76
2022/09/04 09:07:39;;;;;;;0.00;0.00;;;20.50;99.90;226.50;231333.00;;;;5014612;28;20203;-75
2022/09/04 09:10:52;;;;;;;0.00;0.00;;;20.70;99.90;226.50;231333.00;;;;5015003;28;20199;-76
2022/09/04 09:14:15;;;;;;;0.00;0.00;;;20.70;99.90;226.50;231333.00;;;;5013528;28;20226;-75
2022/09/04 09:16:52;;;;;;;0.00;0.00;;;20.70;99.90;226.50;231333.00;;;;5015845;28;20249;-75
2022/09/04 09:19:43;;;;;;;0.00;0.00;;;20.70;99.90;226.50;231333.00;;;;5020495;28;20242;-75
2022/09/04 09:22:49;;;;;;;0.00;0.00;;;20.80;99.90;226.50;231333.00;;;;5021619;28;20200;-76
2022/09/04 09:25:26;;;;;;;0.00;0.00;;;21.00;99.90;226.50;231333.00;;;;5023626;28;20207;-75
2022/09/04 09:28:47;;;;;;;0.00;0.00;;;21.10;99.90;226.50;231333.00;;;;5014339;28;20200;-76
2022/09/04 09:32:07;;;;;;;0.00;0.00;;;21.10;99.90;226.50;231333.00;;;;4995832;28;20656;-76
2022/09/04 09:35:23;;;;;;;0.00;0.00;;;21.40;99.90;226.50;231333.00;;;;5013627;28;20208;-75
2022/09/04 09:38:31;;;;;;;0.00;0.00;;;21.50;99.90;226.50;231333.00;;;;5005173;28;20682;-75
2022/09/04 09:41:59;;;;;;;0.00;0.00;;;21.60;99.90;226.50;231333.00;;;;5007503;28;20245;-76
2022/09/04 09:45:16;;;;;;;0.00;0.00;;;21.70;99.90;226.50;231333.00;;;;5015873;28;20195;-75
2022/09/04 09:48:32;;;;;;;0.00;0.00;;;21.80;99.90;226.50;231333.00;;;;4993876;28;20200;-75
2022/09/04 09:51:58;;;;;;;0.00;0.00;;;21.90;99.90;226.50;231333.00;;;;4996492;28;20204;-75
2022/09/04 09:55:00;;;;;;;0.00;0.00;;;21.90;99.90;226.50;231333.00;;;;5030251;28;20637;-76
2022/09/04 09:58:17;;;;;;;0.00;0.00;;;22.00;99.90;226.50;231333.00;;;;5019239;28;20274;-75
2022/09/04 10:01:09;;;;;;;0.00;0.00;;;22.00;99.90;226.50;231333.00;;;;5016232;28;20196;-76
2022/09/04 10:04:44;;;;;;;0.00;0.00;;;22.10;99.90;226.50;231333.00;;;;5013715;28;20231;-75
2022/09/04 10:08:11;;;;;;;0.00;0.00;;;22.40;99.90;226.50;231333.00;;;;5013452;28;20685;-76
2022/09/04 10:11:07;;;;;;;0.00;0.00;;;22.70;99.90;226.50;231333.00;;;;5013146;28;20202;-75
2022/09/04 10:14:40;;;;;;;0.00;0.00;;;23.00;99.90;226.50;231333.00;;;;5001209;28;20224;-76
2022/09/04 10:18:13;;;;;;;0.00;0.00;;;23.10;99.90;226.50;231333.00;;;;4960846;28;20219;-75
2022/09/04 10:21:21;;;;;;;0.00;0.00;;;23.00;99.90;226.50;231333.00;;;;4992519;28;20567;-75
2022/09/04 10:24:29;;;;;;;0.00;0.00;;;23.30;99.90;226.50;231333.00;;;;4972017;28;20248;-75
2022/09/04 10:27:40;;;;;;;0.00;0.00;;;23.20;99.90;226.50;231333.00;;;;5008066;28;20254;-75
2022/09/04 10:30:19;;;;;;;0.00;0.00;;;23.10;99.90;226.50;231333.00;;;;4992558;28;20227;-75
2022/09/04 10:33:21;;;;;;;0.00;0.00;;;22.90;99.90;226.50;231333.00;;;;5006887;28;20294;-75
2022/09/04 10:36:08;;;;;;;0.00;0.00;;;22.90;99.90;226.50;231333.00;;;;4992063;28;20199;-75
2022/09/04 10:41:58;;;;;;;0.00;0.00;;;23.60;99.90;226.50;231333.00;;;;4990902;28;20204;-75
2022/09/04 10:45:02;;;;;;;0.00;0.00;;;24.00;99.90;226.50;231333.00;;;;4997103;28;20200;-76
2022/09/04 10:48:06;;;;;;;0.00;0.00;;;24.20;99.90;226.50;231333.00;;;;5002641;28;20206;-75
2022/09/04 10:51:33;;;;;;;0.00;0.00;;;24.40;99.90;226.50;231333.00;;;;4999963;28;20231;-76
2022/09/04 10:54:43;;;;;;;0.00;0.00;;;24.80;99.90;226.50;231333.00;;;;4996480;28;20231;-75
2022/09/04 10:57:37;;;;;;;0.00;0.00;;;24.90;99.90;226.50;231333.00;;;;5000617;28;20214;-76
2022/09/04 11:00:12;;;;;;;0.00;0.00;;;24.80;99.90;226.50;231333.00;;;;4993730;28;20690;-76
2022/09/04 11:03:40;;;;;;;0.00;0.00;;;25.00;99.90;226.50;231333.00;;;;5017440;28;20231;-75
2022/09/04 11:07:03;;;;;;;0.00;0.00;;;25.20;99.90;226.50;231333.00;;;;5018786;28;20214;-75
2022/09/04 11:10:16;;;;;;;0.00;0.00;;;25.90;99.90;226.50;231333.00;;;;5011633;28;20230;-75
2022/09/04 11:13:47;;;;;;;0.00;0.00;;;26.20;99.90;226.50;231333.00;;;;5011626;28;20238;-75
2022/09/04 11:16:42;;;;;;;0.00;0.00;;;26.30;99.90;226.50;231333.00;;;;5000573;28;20199;-76
2022/09/04 11:20:09;;;;;;;0.00;0.00;;;26.30;99.90;226.50;231333.00;;;;5011349;28;20200;-76
2022/09/04 11:23:38;;;;;;;0.00;0.00;;;26.40;99.90;226.50;231333.00;;;;5033006;23;20203;-76
2022/09/04 11:27:01;;;;;;;0.00;0.00;;;26.50;99.90;226.50;231333.00;;;;4991774;28;20210;-76
2022/09/04 11:29:58;;;;;;;0.00;0.00;;;26.60;99.90;226.50;231333.00;;;;4991937;28;20228;-75
2022/09/04 11:33:21;;;;;;;0.00;0.00;;;26.20;99.90;226.50;231333.00;;;;4991662;28;20275;-76
2022/09/04 11:36:34;;;;;;;0.00;0.00;;;26.00;99.90;226.50;231333.00;;;;4972419;28;20305;-75
2022/09/04 11:40:00;;;;;;;0.00;0.00;;;25.70;99.90;226.50;231333.00;;;;4941374;28;20243;-76
2022/09/04 11:42:48;;;;;;;0.00;0.00;;;25.70;99.90;226.50;231333.00;;;;4965938;28;20228;-75
2022/09/04 11:45:58;;;;;;;0.00;0.00;;;26.10;99.90;226.50;231333.00;;;;4972452;28;20189;-74
2022/09/04 11:49:19;;;;;;;0.00;0.00;;;26.40;99.90;226.50;231333.00;;;;4972082;28;20201;-75
2022/09/04 11:52:24;;;;;;;0.00;0.00;;;26.80;99.90;226.50;231333.00;;;;4972246;28;20205;-74
2022/09/04 11:55:17;;;;;;;0.00;0.00;;;27.10;99.90;226.50;231333.00;;;;4960203;28;20205;-74
2022/09/04 11:58:35;;;;;;;0.00;0.00;;;27.20;99.90;226.50;231333.00;;;;4968661;28;20209;-75
2022/09/04 12:01:34;;;;;;;0.00;0.00;;;27.30;99.80;226.50;231333.00;;;;4973715;28;20212;-74
2022/09/04 12:04:42;;;;;;;0.00;0.00;;;27.80;99.70;226.50;231333.00;;;;4956509;28;20260;-74
2022/09/04 12:07:40;;;;;;;0.00;0.00;;;28.00;99.30;226.50;231333.00;;;;4969024;28;20614;-74
2022/09/04 12:10:42;;;;;;;0.00;0.00;;;28.00;98.80;226.50;231333.00;;;;4975392;28;20260;-75
2022/09/04 12:13:46;;;;;;;0.00;0.00;;;27.90;99.00;226.50;231333.00;;;;4975579;28;20731;-76
2022/09/04 12:17:14;;;;;;;0.00;0.00;;;27.40;98.90;226.50;231333.00;;;;4956812;28;20202;-75
2022/09/04 12:20:52;;;;;;;0.00;0.00;;;26.90;99.90;226.50;231333.00;;;;4956291;28;20213;-74
2022/09/04 12:23:49;;;;;;;0.00;0.00;;;26.40;99.90;226.50;231333.00;;;;4937644;28;20240;-74
2022/09/04 12:27:03;;;;;;;0.00;0.00;;;26.30;99.90;226.50;231333.00;;;;4962344;28;20209;-76
2022/09/04 12:30:14;;;;;;;0.00;0.00;;;26.20;99.90;226.50;231333.00;;;;4968812;28;20225;-75
2022/09/04 12:33:34;;;;;;;0.00;0.00;;;26.10;99.90;226.50;231333.00;;;;4956196;28;20189;-75
2022/09/04 12:36:58;;;;;;;0.00;0.00;;;26.00;99.90;226.50;231333.00;;;;4960535;28;20564;-76
2022/09/04 12:40:04;;;;;;;0.00;0.00;;;25.90;99.90;226.50;231333.00;;;;4975160;28;20201;-75
2022/09/04 12:42:46;;;;;;;0.00;0.00;;;25.90;99.90;226.50;231333.00;;;;4975340;28;20268;-75
2022/09/04 12:45:28;;;;;;;0.00;0.00;;;25.90;99.90;226.50;231333.00;;;;4975043;28;20201;-76
2022/09/04 12:48:16;;;;;;;0.00;0.00;;;25.80;99.90;226.50;231333.00;;;;4956197;28;20268;-76
2022/09/04 12:50:56;;;;;;;0.00;0.00;;;25.80;99.90;226.50;231333.00;;;;4957373;28;20303;-75